createdAt,value
2019-05-29T00:02:26.212Z,0.80
2019-05-29T00:04:52.619Z,0.37
2019-05-29T00:10:38.145Z,0.53
2019-05-29T00:27:37.380Z,0.78
2019-05-29T00:30:13.472Z,0.60
2019-05-29T00:32:45.144Z,0.40
2019-05-29T00:38:10.551Z,0.60
2019-05-29T00:40:53.599Z,0.40
2019-05-29T00:43:25.564Z,0.47
2019-05-29T00:46:13.800Z,0.80
2019-05-29T00:48:44.747Z,0.47
2019-05-29T00:51:12.965Z,0.42
2019-05-29T00:53:44.285Z,0.35
2019-05-29T00:56:34.189Z,0.40
2019-05-29T00:59:00.525Z,0.35
2019-05-29T01:01:51.388Z,0.60
2019-05-29T01:04:44.248Z,0.33
2019-05-29T01:07:03.914Z,0.55
2019-05-29T01:31:21.643Z,0.53
2019-05-29T01:34:28.292Z,0.80
2019-05-29T01:37:52.251Z,0.50
2019-05-29T01:48:37.681Z,0.60
2019-05-29T01:51:17.444Z,0.65
2019-05-29T01:53:50.703Z,0.70
2019-05-29T01:56:19.814Z,0.90
2019-05-29T01:58:45.657Z,0.65
2019-05-29T02:01:19.881Z,0.70
2019-05-29T02:03:53.461Z,0.50
2019-05-29T02:06:28.808Z,0.90
2019-05-29T02:09:01.957Z,0.70
2019-05-29T02:11:53.121Z,0.70
2019-05-29T02:14:23.141Z,0.53
2019-05-29T02:16:52.528Z,0.80
2019-05-29T02:19:29.031Z,0.60
2019-05-29T02:22:06.021Z,0.68
2019-05-29T02:27:30.116Z,0.80
2019-05-29T02:32:39.649Z,0.88
2019-05-29T02:35:37.066Z,0.75
2019-05-29T02:38:05.270Z,0.53
2019-05-29T02:40:53.397Z,0.90
2019-05-29T02:43:45.031Z,0.78
2019-05-29T02:48:54.166Z,0.80
2019-05-29T02:51:24.040Z,1.02
2019-05-29T02:53:59.279Z,1.10
2019-05-29T02:56:35.600Z,0.80
2019-05-29T02:59:11.337Z,0.65
2019-05-29T03:01:41.722Z,1.15
2019-05-29T03:04:21.726Z,1.00
2019-05-29T03:06:59.473Z,0.72
2019-05-29T03:10:35.834Z,1.12
2019-05-29T03:12:11.568Z,1.20
2019-05-29T03:14:42.631Z,1.00
2019-05-29T03:17:20.883Z,0.90
2019-05-29T03:21:48.548Z,1.57
2019-05-29T03:22:36.150Z,0.62
2019-05-29T03:25:05.916Z,1.30
2019-05-29T03:27:34.077Z,0.95
2019-05-29T03:30:02.410Z,1.50
2019-05-29T03:32:48.633Z,0.98
2019-05-29T03:35:20.021Z,0.78
2019-05-29T03:37:59.233Z,1.10
2019-05-29T03:40:38.749Z,0.60
2019-05-29T03:54:28.817Z,1.50
2019-05-29T03:57:14.080Z,1.10
2019-05-29T03:59:57.280Z,1.10
2019-05-29T04:02:28.531Z,1.10
2019-05-29T04:05:18.707Z,1.47
2019-05-29T04:09:00.484Z,1.25
2019-05-29T04:35:39.755Z,1.40
2019-05-29T04:38:19.076Z,1.35
2019-05-29T04:40:49.286Z,1.10
2019-05-29T04:43:20.648Z,1.07
2019-05-29T04:45:58.415Z,1.02
2019-05-29T04:48:26.017Z,1.20
2019-05-29T04:51:04.461Z,1.07
2019-05-29T04:53:37.715Z,1.02
2019-05-29T04:56:20.438Z,1.60
2019-05-29T04:58:49.391Z,1.52
2019-05-29T05:01:37.114Z,1.25
2019-05-29T05:10:45.798Z,1.07
2019-05-29T05:47:43.574Z,0.62
2019-05-29T05:50:11.052Z,0.60
2019-05-29T05:52:58.404Z,0.57
2019-05-29T05:55:12.680Z,0.60
2019-05-29T05:57:43.264Z,0.50
2019-05-29T06:00:18.283Z,0.70
2019-05-29T06:02:52.111Z,0.60
2019-05-29T06:05:40.634Z,0.80
2019-05-29T06:08:11.629Z,0.40
2019-05-29T06:24:41.138Z,0.80
2019-05-29T06:27:20.432Z,0.70
2019-05-29T07:40:08.068Z,0.68
2019-05-29T07:43:03.536Z,0.70
2019-05-29T07:45:33.908Z,1.50
2019-05-29T07:48:12.713Z,0.90
2019-05-29T07:50:48.406Z,0.60
2019-05-29T08:00:03.282Z,0.93
2019-05-29T08:02:35.818Z,1.00
2019-05-29T08:05:25.825Z,0.70
2019-05-29T08:07:55.297Z,0.80
2019-05-29T08:12:09.557Z,0.53
2019-05-29T08:13:03.431Z,1.10
2019-05-29T08:16:01.826Z,0.88
2019-05-29T08:18:31.823Z,0.60
2019-05-29T08:21:07.672Z,1.60
2019-05-29T08:23:52.663Z,1.00
2019-05-29T08:26:20.809Z,1.05
2019-05-29T08:29:06.647Z,0.70
2019-05-29T08:31:40.681Z,0.70
2019-05-29T08:34:22.140Z,1.30
2019-05-29T08:37:07.437Z,0.80
2019-05-29T08:42:30.563Z,0.78
2019-05-29T08:48:02.397Z,0.90
2019-05-29T08:50:41.509Z,1.05
2019-05-29T08:53:21.832Z,0.95
2019-05-29T08:56:04.758Z,0.60
2019-05-29T08:58:30.189Z,0.90
2019-05-29T09:03:46.637Z,1.20
2019-05-29T09:06:29.065Z,1.10
2019-05-29T09:09:10.187Z,0.90
2019-05-29T09:11:29.480Z,0.80
2019-05-29T09:14:08.817Z,0.70
2019-05-29T09:16:37.130Z,1.35
2019-05-29T09:19:12.125Z,2.00
2019-05-29T09:25:03.127Z,1.17
2019-05-29T09:27:09.190Z,1.27
2019-05-29T09:29:42.585Z,1.10
2019-05-29T09:32:15.353Z,1.42
2019-05-29T09:34:48.441Z,1.10
2019-05-29T09:37:16.071Z,1.15
2019-05-29T09:39:44.605Z,1.20
2019-05-29T09:42:15.059Z,1.40
2019-05-29T09:45:00.917Z,1.35
2019-05-29T09:47:32.095Z,0.80
2019-05-29T09:50:12.428Z,1.00
2019-05-29T09:52:49.433Z,0.90
2019-05-29T09:55:18.526Z,0.70
2019-05-29T09:57:49.853Z,1.15
2019-05-29T10:00:22.163Z,2.10
2019-05-29T10:08:25.979Z,0.75
2019-05-29T10:11:10.661Z,1.80
2019-05-29T10:17:17.718Z,1.40
2019-05-29T10:22:44.190Z,1.30
2019-05-29T10:25:11.719Z,0.60
2019-05-29T10:27:49.579Z,1.75
2019-05-29T10:30:26.306Z,1.40
2019-05-29T10:32:58.879Z,1.65
2019-05-29T10:35:37.020Z,0.70
2019-05-29T10:38:16.252Z,1.85
2019-05-29T10:41:06.272Z,1.45
2019-05-29T10:43:34.198Z,1.35
2019-05-29T10:45:58.931Z,1.30
2019-05-29T10:48:30.769Z,1.22
2019-05-29T10:51:02.029Z,1.25
2019-05-29T10:53:36.029Z,1.70
2019-05-29T10:56:04.569Z,1.30
2019-05-29T10:58:47.649Z,0.80
2019-05-29T11:01:04.842Z,1.82
2019-05-29T11:03:45.545Z,1.72
2019-05-29T11:06:21.192Z,1.57
2019-05-29T11:08:56.412Z,1.95
2019-05-29T11:14:18.145Z,1.30
2019-05-29T11:17:01.521Z,1.27
2019-05-29T11:19:45.661Z,1.30
2019-05-29T11:22:26.112Z,1.47
2019-05-29T11:25:22.129Z,1.50
2019-05-29T11:27:38.421Z,2.27
2019-05-29T11:30:23.060Z,2.17
2019-05-29T11:33:00.470Z,1.85
2019-05-29T11:35:27.539Z,1.50
2019-05-29T11:37:56.484Z,1.70
2019-05-29T11:40:33.513Z,2.40
2019-05-29T11:43:07.777Z,1.32
2019-05-29T11:45:47.562Z,1.67
2019-05-29T11:48:33.446Z,2.12
2019-05-29T11:51:05.868Z,1.50
2019-05-29T11:53:43.277Z,1.70
2019-05-29T11:56:13.571Z,2.15
2019-05-29T11:58:47.734Z,1.47
2019-05-29T12:01:25.046Z,1.72
2019-05-29T12:04:18.671Z,2.35
2019-05-29T12:06:29.036Z,2.37
2019-05-29T12:26:21.491Z,3.02
2019-05-29T12:28:39.304Z,2.85
2019-05-29T12:29:18.760Z,4.62
2019-05-29T12:32:17.782Z,3.25
2019-05-29T12:35:42.767Z,3.42
2019-05-29T12:38:12.011Z,3.58
2019-05-29T12:40:40.614Z,1.92
2019-05-29T12:43:26.550Z,2.80
2019-05-29T12:45:46.565Z,2.90
2019-05-29T12:52:49.127Z,3.15
2019-05-29T12:55:17.543Z,3.45
2019-05-29T12:58:00.067Z,2.50
2019-05-29T13:00:26.450Z,1.77
2019-05-29T13:03:02.933Z,3.08
2019-05-29T13:08:21.450Z,2.50
2019-05-29T13:10:56.226Z,3.20
2019-05-29T13:14:00.580Z,3.00
2019-05-29T13:16:31.944Z,3.58
2019-05-29T13:19:24.736Z,3.70
2019-05-29T13:21:57.276Z,3.35
2019-05-29T13:24:31.881Z,3.20
2019-05-29T13:27:23.095Z,2.45
2019-05-29T13:30:00.606Z,3.90
2019-05-29T13:32:30.974Z,3.50
2019-05-29T13:35:00.429Z,4.08
2019-05-29T13:37:37.214Z,2.37
2019-05-29T13:40:13.543Z,3.00
2019-05-29T13:42:39.890Z,2.83
2019-05-29T13:45:34.755Z,3.08
2019-05-29T13:48:05.239Z,2.47
2019-05-29T13:50:42.691Z,2.95
2019-05-29T13:56:11.389Z,3.62
2019-05-29T13:58:46.520Z,3.83
2019-05-29T14:01:14.924Z,3.60
2019-05-29T14:03:45.095Z,1.90
2019-05-29T14:09:16.323Z,2.20
2019-05-29T14:11:43.992Z,2.47
2019-05-29T14:15:08.244Z,3.00
2019-05-29T14:18:54.480Z,2.08
2019-05-29T14:21:27.663Z,2.15
2019-05-29T14:24:02.769Z,2.12
2019-05-29T14:26:49.300Z,3.20
2019-05-29T14:29:26.914Z,3.25
2019-05-29T14:31:59.245Z,2.00
2019-05-29T14:34:34.889Z,1.67
2019-05-29T14:37:21.967Z,4.30
2019-05-29T14:40:12.071Z,3.08
2019-05-29T14:42:46.190Z,3.87
2019-05-29T14:45:15.412Z,2.83
2019-05-29T14:47:46.161Z,3.33
2019-05-29T14:50:17.370Z,3.58
2019-05-29T14:56:58.316Z,4.05
2019-05-29T15:01:50.991Z,3.40
2019-05-29T15:04:16.698Z,4.17
2019-05-29T15:07:05.774Z,4.37
2019-05-29T15:09:43.653Z,3.80
2019-05-29T15:12:14.254Z,4.17
2019-05-29T15:15:43.635Z,5.45
2019-05-29T15:18:18.668Z,5.47
2019-05-29T15:24:09.560Z,3.35
2019-05-29T15:26:52.165Z,4.08
2019-05-29T15:32:12.655Z,3.92
2019-05-29T15:34:48.303Z,3.90
2019-05-29T15:37:18.547Z,5.87
2019-05-29T15:39:49.787Z,4.35
2019-05-29T15:42:33.937Z,4.23
2019-05-29T15:44:53.310Z,5.47
2019-05-29T15:47:25.320Z,4.53
2019-05-29T15:49:59.474Z,4.05
2019-05-29T15:52:29.054Z,4.15
2019-05-29T15:54:55.483Z,4.50
2019-05-29T15:57:54.710Z,5.80
2019-05-29T16:00:50.733Z,4.87
2019-05-29T16:03:19.641Z,5.20
2019-05-29T16:05:50.865Z,3.98
2019-05-29T16:08:20.081Z,4.12
2019-05-29T16:10:49.867Z,5.08
2019-05-29T16:13:24.621Z,6.17
2019-05-29T16:15:55.774Z,5.08
2019-05-29T16:18:28.079Z,4.10
2019-05-29T16:20:57.380Z,5.47
2019-05-29T16:23:35.617Z,4.65
2019-05-29T16:26:02.223Z,7.22
2019-05-29T16:28:50.473Z,6.53
2019-05-29T16:31:21.117Z,7.42
2019-05-29T16:34:06.400Z,6.40
2019-05-29T16:36:39.195Z,5.37
2019-05-29T16:39:19.181Z,5.72
2019-05-29T16:41:47.540Z,7.55
2019-05-29T16:44:38.138Z,5.37
2019-05-29T16:47:20.525Z,4.30
2019-05-29T16:49:46.826Z,4.65
2019-05-29T16:52:15.011Z,6.40
2019-05-29T16:54:54.334Z,6.35
2019-05-29T16:57:28.176Z,7.72
2019-05-29T17:00:00.275Z,6.03
2019-05-29T17:02:37.744Z,5.37
2019-05-29T17:05:17.748Z,5.40
2019-05-29T17:07:56.978Z,4.83
2019-05-29T17:10:33.681Z,7.08
2019-05-29T17:20:40.308Z,6.35
2019-05-29T17:26:52.387Z,5.17
2019-05-29T17:29:54.451Z,6.05
2019-05-29T17:32:51.405Z,6.08
2019-05-29T17:35:50.301Z,4.87
2019-05-29T17:38:50.900Z,4.47
2019-05-29T17:41:23.199Z,6.05
2019-05-29T17:43:53.052Z,5.37
2019-05-29T17:46:29.315Z,5.28
2019-05-29T17:49:06.581Z,4.58
2019-05-29T17:54:43.490Z,6.85
2019-05-29T17:57:08.909Z,5.20
2019-05-29T18:06:44.251Z,4.05
2019-05-29T18:32:26.874Z,3.10
2019-05-29T18:35:44.584Z,2.15
2019-05-29T18:38:28.750Z,5.05
2019-05-29T18:41:02.110Z,5.17
2019-05-29T18:43:32.845Z,4.37
2019-05-29T18:48:53.437Z,4.05
2019-05-29T19:04:34.344Z,3.17
2019-05-29T19:06:39.943Z,6.80
2019-05-29T19:09:21.783Z,8.00
2019-05-29T19:11:51.190Z,11.35
2019-05-29T19:15:12.646Z,12.15
2019-05-29T19:17:10.958Z,10.88
2019-05-29T19:19:44.406Z,9.93
2019-05-29T19:22:26.721Z,13.80
2019-05-29T19:27:52.458Z,11.05
2019-05-29T19:30:24.730Z,9.70
2019-05-29T19:33:14.998Z,11.83
2019-05-29T19:35:54.026Z,10.75
2019-05-29T19:39:01.462Z,8.80
2019-05-29T19:41:21.298Z,9.30
2019-05-29T19:46:52.544Z,7.92
2019-05-29T19:52:14.300Z,9.48
2019-05-29T19:54:46.968Z,10.13
2019-05-29T19:57:50.523Z,8.28
2019-05-29T20:00:19.158Z,8.80
2019-05-29T20:05:41.840Z,11.38
2019-05-29T20:08:16.783Z,9.03
2019-05-29T20:10:51.023Z,6.97
2019-05-29T20:13:21.939Z,9.23
2019-05-29T20:15:58.714Z,9.20
2019-05-29T20:18:32.074Z,9.60
2019-05-29T20:21:28.555Z,10.90
2019-05-29T20:23:55.521Z,7.12
2019-05-29T20:29:26.046Z,5.70
2019-05-29T20:32:05.178Z,6.17
2019-05-29T20:34:47.531Z,8.25
2019-05-29T20:37:26.155Z,6.12
2019-05-29T20:40:01.521Z,4.30
2019-05-29T20:42:32.140Z,4.28
2019-05-29T20:45:17.498Z,6.20
2019-05-29T20:47:42.324Z,5.12
2019-05-29T20:50:12.470Z,7.05
2019-05-29T20:52:55.571Z,6.12
2019-05-29T20:55:25.921Z,4.78
2019-05-29T20:58:00.959Z,3.33
2019-05-29T21:03:15.021Z,5.15
2019-05-29T21:05:42.922Z,3.95
2019-05-29T21:08:18.952Z,3.08
2019-05-29T21:10:53.302Z,2.77
2019-05-29T21:13:43.687Z,2.20
2019-05-29T21:16:16.863Z,2.98
2019-05-29T21:18:55.897Z,2.80
2019-05-29T21:21:44.620Z,2.77
2019-05-29T21:24:34.451Z,2.15
2019-05-29T21:27:03.151Z,1.42
2019-05-29T21:29:39.147Z,1.55
2019-05-29T21:35:17.605Z,1.65
2019-05-29T21:40:54.244Z,1.87
2019-05-29T21:43:27.839Z,1.90
2019-05-29T21:52:09.472Z,2.33
2019-05-29T21:54:41.375Z,1.80
2019-05-29T21:57:21.557Z,1.47
2019-05-29T21:59:48.081Z,1.80
2019-05-29T22:03:19.821Z,1.40
2019-05-29T22:09:04.885Z,1.40
2019-05-29T22:22:37.644Z,1.20
2019-05-29T22:25:34.348Z,1.15
2019-05-29T22:28:40.248Z,1.30
2019-05-29T22:31:10.433Z,0.95
2019-05-29T22:33:36.773Z,1.30
2019-05-29T22:36:15.320Z,1.05
2019-05-29T22:38:45.203Z,1.05
2019-05-29T22:41:24.293Z,1.12
2019-05-29T22:43:57.573Z,1.20
2019-05-29T22:46:25.743Z,1.10
2019-05-29T22:49:02.124Z,1.15
2019-05-29T22:54:21.277Z,0.50
2019-05-29T22:57:05.130Z,0.70
2019-05-29T22:59:37.324Z,1.05
2019-05-29T23:02:09.340Z,1.50
2019-05-29T23:05:00.335Z,0.93
2019-05-29T23:07:31.522Z,0.75
2019-05-29T23:10:13.681Z,0.65
2019-05-29T23:12:56.421Z,0.78
2019-05-29T23:18:42.830Z,0.90
2019-05-29T23:21:27.699Z,1.20
2019-05-29T23:23:53.384Z,0.90
2019-05-29T23:26:28.715Z,0.70
2019-05-29T23:28:57.380Z,0.90
2019-05-29T23:31:26.095Z,1.00
2019-05-29T23:36:52.965Z,0.98
2019-05-29T23:39:38.670Z,0.80
2019-05-29T23:42:15.392Z,1.75
2019-05-29T23:44:51.744Z,1.77
2019-05-29T23:47:53.409Z,1.77
2019-05-29T23:50:18.037Z,1.57
2019-05-29T23:52:49.037Z,2.30
2019-05-29T23:58:20.067Z,2.02
